sensor_id;sensor_type;location;lat;lon;timestamp;P1;durP1;ratioP1;P2;durP2;ratioP2
11090;SDS011;5599;52.210;21.046;2022-10-01T00:02:10;21.27;;;19.13;;
11090;SDS011;5599;52.210;21.046;2022-10-01T00:04:39;21.73;;;19.53;;
11090;SDS011;5599;52.210;21.046;2022-10-01T00:07:09;20.80;;;18.80;;
11090;SDS011;5599;52.210;21.046;2022-10-01T00:09:42;20.87;;;18.87;;
11090;SDS011;5599;52.210;21.046;2022-10-01T00:12:11;21.00;;;19.10;;
11090;SDS011;5599;52.210;21.046;2022-10-01T00:14:42;21.73;;;19.47;;
11090;SDS011;5599;52.210;21.046;2022-10-01T00:17:11;20.27;;;18.30;;
11090;SDS011;5599;52.210;21.046;2022-10-01T00:19:40;21.33;;;19.00;;
11090;SDS011;5599;52.210;21.046;2022-10-01T00:22:09;21.00;;;18.90;;
11090;SDS011;5599;52.210;21.046;2022-10-01T00:24:38;20.23;;;18.20;;
11090;SDS011;5599;52.210;21.046;2022-10-01T00:27:09;21.37;;;19.17;;
11090;SDS011;5599;52.210;21.046;2022-10-01T00:29:39;21.60;;;19.37;;
11090;SDS011;5599;52.210;21.046;2022-10-01T00:32:11;21.30;;;19.00;;
11090;SDS011;5599;52.210;21.046;2022-10-01T00:34:40;20.70;;;18.60;;
11090;SDS011;5599;52.210;21.046;2022-10-01T00:37:09;20.87;;;18.87;;
11090;SDS011;5599;52.210;21.046;2022-10-01T00:39:38;22.13;;;19.87;;
11090;SDS011;5599;52.210;21.046;2022-10-01T00:42:17;23.37;;;20.97;;
11090;SDS011;5599;52.210;21.046;2022-10-01T00:44:48;22.60;;;20.30;;
11090;SDS011;5599;52.210;21.046;2022-10-01T00:47:19;22.47;;;20.07;;
11090;SDS011;5599;52.210;21.046;2022-10-01T00:49:54;21.50;;;19.43;;
11090;SDS011;5599;52.210;21.046;2022-10-01T00:52:29;21.17;;;19.13;;
11090;SDS011;5599;52.210;21.046;2022-10-01T00:55:01;22.13;;;20.03;;
11090;SDS011;5599;52.210;21.046;2022-10-01T00:57:35;22.57;;;20.30;;
11090;SDS011;5599;52.210;21.046;2022-10-01T01:00:06;22.13;;;19.90;;
11090;SDS011;5599;52.210;21.046;2022-10-01T01:02:38;21.43;;;19.33;;
11090;SDS011;5599;52.210;21.046;2022-10-01T01:05:08;21.83;;;19.67;;
11090;SDS011;5599;52.210;21.046;2022-10-01T01:07:38;20.93;;;18.83;;
11090;SDS011;5599;52.210;21.046;2022-10-01T01:10:12;22.47;;;20.27;;
11090;SDS011;5599;52.210;21.046;2022-10-01T01:12:48;21.60;;;19.40;;
11090;SDS011;5599;52.210;21.046;2022-10-01T01:15:29;20.80;;;18.80;;
11090;SDS011;5599;52.210;21.046;2022-10-01T01:18:05;21.37;;;19.27;;
11090;SDS011;5599;52.210;21.046;2022-10-01T01:20:42;22.27;;;19.97;;
11090;SDS011;5599;52.210;21.046;2022-10-01T01:23:37;22.20;;;19.93;;
11090;SDS011;5599;52.210;21.046;2022-10-01T01:26:26;22.13;;;19.83;;
11090;SDS011;5599;52.210;21.046;2022-10-01T01:29:03;22.57;;;20.37;;
11090;SDS011;5599;52.210;21.046;2022-10-01T01:31:38;21.67;;;19.57;;
11090;SDS011;5599;52.210;21.046;2022-10-01T01:34:13;22.83;;;20.53;;
11090;SDS011;5599;52.210;21.046;2022-10-01T01:36:53;23.07;;;20.77;;
11090;SDS011;5599;52.210;21.046;2022-10-01T01:39:28;21.43;;;19.43;;
11090;SDS011;5599;52.210;21.046;2022-10-01T01:42:02;21.93;;;19.67;;
11090;SDS011;5599;52.210;21.046;2022-10-01T01:44:37;21.53;;;19.43;;
11090;SDS011;5599;52.210;21.046;2022-10-01T01:47:09;22.90;;;20.30;;
11090;SDS011;5599;52.210;21.046;2022-10-01T01:49:41;22.03;;;19.93;;
11090;SDS011;5599;52.210;21.046;2022-10-01T01:52:11;21.63;;;19.47;;
11090;SDS011;5599;52.210;21.046;2022-10-01T01:54:42;24.07;;;21.57;;
11090;SDS011;5599;52.210;21.046;2022-10-01T01:57:13;22.90;;;20.60;;
11090;SDS011;5599;52.210;21.046;2022-10-01T01:59:46;24.00;;;21.60;;
11090;SDS011;5599;52.210;21.046;2022-10-01T02:02:16;25.97;;;23.47;;
11090;SDS011;5599;52.210;21.046;2022-10-01T02:04:50;25.57;;;22.97;;
11090;SDS011;5599;52.210;21.046;2022-10-01T02:07:27;25.70;;;23.00;;
11090;SDS011;5599;52.210;21.046;2022-10-01T02:10:15;27.87;;;25.07;;
11090;SDS011;5599;52.210;21.046;2022-10-01T02:12:55;31.27;;;28.07;;
11090;SDS011;5599;52.210;21.046;2022-10-01T02:15:39;32.43;;;29.13;;
11090;SDS011;5599;52.210;21.046;2022-10-01T02:18:17;33.13;;;29.67;;
11090;SDS011;5599;52.210;21.046;2022-10-01T02:20:53;34.60;;;31.10;;
11090;SDS011;5599;52.210;21.046;2022-10-01T02:23:31;35.10;;;31.50;;
11090;SDS011;5599;52.210;21.046;2022-10-01T02:26:07;34.70;;;31.13;;
11090;SDS011;5599;52.210;21.046;2022-10-01T02:28:42;35.00;;;31.23;;
11090;SDS011;5599;52.210;21.046;2022-10-01T02:31:15;36.37;;;32.60;;
11090;SDS011;5599;52.210;21.046;2022-10-01T02:33:46;37.40;;;33.03;;
11090;SDS011;5599;52.210;21.046;2022-10-01T02:36:17;37.37;;;33.40;;
11090;SDS011;5599;52.210;21.046;2022-10-01T02:38:48;35.93;;;32.43;;
11090;SDS011;5599;52.210;21.046;2022-10-01T02:41:19;35.97;;;32.37;;
11090;SDS011;5599;52.210;21.046;2022-10-01T02:43:53;35.40;;;31.90;;
11090;SDS011;5599;52.210;21.046;2022-10-01T02:46:27;36.40;;;32.60;;
11090;SDS011;5599;52.210;21.046;2022-10-01T02:48:59;36.40;;;32.83;;
11090;SDS011;5599;52.210;21.046;2022-10-01T02:51:30;35.83;;;32.03;;
11090;SDS011;5599;52.210;21.046;2022-10-01T02:54:08;35.37;;;31.73;;
11090;SDS011;5599;52.210;21.046;2022-10-01T02:56:41;35.10;;;31.67;;
11090;SDS011;5599;52.210;21.046;2022-10-01T02:59:28;36.17;;;32.53;;
11090;SDS011;5599;52.210;21.046;2022-10-01T03:01:58;36.73;;;33.10;;
11090;SDS011;5599;52.210;21.046;2022-10-01T03:04:28;36.73;;;32.80;;
11090;SDS011;5599;52.210;21.046;2022-10-01T03:06:57;36.27;;;32.57;;
11090;SDS011;5599;52.210;21.046;2022-10-01T03:09:29;35.63;;;32.23;;
11090;SDS011;5599;52.210;21.046;2022-10-01T03:11:59;35.20;;;31.60;;
11090;SDS011;5599;52.210;21.046;2022-10-01T03:14:29;34.30;;;30.90;;
11090;SDS011;5599;52.210;21.046;2022-10-01T03:16:59;35.77;;;32.07;;
11090;SDS011;5599;52.210;21.046;2022-10-01T03:19:28;36.63;;;32.83;;
11090;SDS011;5599;52.210;21.046;2022-10-01T03:21:57;34.50;;;31.07;;
11090;SDS011;5599;52.210;21.046;2022-10-01T03:24:26;33.67;;;30.27;;
11090;SDS011;5599;52.210;21.046;2022-10-01T03:26:55;35.57;;;31.83;;
11090;SDS011;5599;52.210;21.046;2022-10-01T03:29:25;35.27;;;31.77;;
11090;SDS011;5599;52.210;21.046;2022-10-01T03:31:54;35.13;;;31.43;;
11090;SDS011;5599;52.210;21.046;2022-10-01T03:34:25;36.97;;;33.23;;
11090;SDS011;5599;52.210;21.046;2022-10-01T03:36:54;36.40;;;32.60;;
11090;SDS011;5599;52.210;21.046;2022-10-01T03:39:23;34.93;;;31.43;;
11090;SDS011;5599;52.210;21.046;2022-10-01T03:41:52;36.40;;;32.00;;
11090;SDS011;5599;52.210;21.046;2022-10-01T03:44:21;36.47;;;32.90;;
11090;SDS011;5599;52.210;21.046;2022-10-01T03:46:50;37.17;;;33.37;;
11090;SDS011;5599;52.210;21.046;2022-10-01T03:49:19;35.67;;;32.13;;
11090;SDS011;5599;52.210;21.046;2022-10-01T03:51:50;35.00;;;31.50;;
11090;SDS011;5599;52.210;21.046;2022-10-01T03:54:19;35.07;;;31.40;;
11090;SDS011;5599;52.210;21.046;2022-10-01T03:56:48;32.70;;;29.50;;
11090;SDS011;5599;52.210;21.046;2022-10-01T03:59:18;33.57;;;30.23;;
11090;SDS011;5599;52.210;21.046;2022-10-01T04:01:47;35.57;;;31.90;;
11090;SDS011;5599;52.210;21.046;2022-10-01T04:04:16;32.83;;;29.57;;
11090;SDS011;5599;52.210;21.046;2022-10-01T04:06:45;34.43;;;31.03;;
11090;SDS011;5599;52.210;21.046;2022-10-01T04:09:15;33.27;;;29.87;;
11090;SDS011;5599;52.210;21.046;2022-10-01T04:11:45;33.40;;;30.10;;
11090;SDS011;5599;52.210;21.046;2022-10-01T04:14:14;31.87;;;28.60;;
11090;SDS011;5599;52.210;21.046;2022-10-01T04:16:43;32.30;;;29.17;;
11090;SDS011;5599;52.210;21.046;2022-10-01T04:19:12;33.50;;;30.03;;
11090;SDS011;5599;52.210;21.046;2022-10-01T04:21:41;32.60;;;29.23;;
11090;SDS011;5599;52.210;21.046;2022-10-01T04:24:10;33.77;;;30.20;;
11090;SDS011;5599;52.210;21.046;2022-10-01T04:26:40;36.53;;;31.83;;
11090;SDS011;5599;52.210;21.046;2022-10-01T04:29:09;33.47;;;30.10;;
11090;SDS011;5599;52.210;21.046;2022-10-01T04:31:38;33.50;;;30.10;;
11090;SDS011;5599;52.210;21.046;2022-10-01T04:34:07;35.40;;;31.40;;
11090;SDS011;5599;52.210;21.046;2022-10-01T04:36:37;34.17;;;30.67;;
11090;SDS011;5599;52.210;21.046;2022-10-01T04:39:05;33.00;;;29.50;;
11090;SDS011;5599;52.210;21.046;2022-10-01T04:41:34;34.20;;;30.67;;
11090;SDS011;5599;52.210;21.046;2022-10-01T04:44:06;36.37;;;32.47;;
11090;SDS011;5599;52.210;21.046;2022-10-01T04:46:36;35.30;;;31.30;;
11090;SDS011;5599;52.210;21.046;2022-10-01T04:49:05;34.13;;;30.63;;
11090;SDS011;5599;52.210;21.046;2022-10-01T04:51:34;32.83;;;29.40;;
11090;SDS011;5599;52.210;21.046;2022-10-01T04:54:03;32.73;;;29.30;;
11090;SDS011;5599;52.210;21.046;2022-10-01T04:56:32;34.27;;;30.67;;
11090;SDS011;5599;52.210;21.046;2022-10-01T04:59:01;33.47;;;30.03;;
11090;SDS011;5599;52.210;21.046;2022-10-01T05:01:32;31.77;;;28.57;;
11090;SDS011;5599;52.210;21.046;2022-10-01T05:04:02;33.73;;;30.10;;
11090;SDS011;5599;52.210;21.046;2022-10-01T05:06:31;34.17;;;30.67;;
11090;SDS011;5599;52.210;21.046;2022-10-01T05:09:00;32.27;;;28.80;;
11090;SDS011;5599;52.210;21.046;2022-10-01T05:11:29;33.40;;;29.77;;
11090;SDS011;5599;52.210;21.046;2022-10-01T05:14:00;30.93;;;27.73;;
11090;SDS011;5599;52.210;21.046;2022-10-01T05:16:30;30.83;;;27.53;;
11090;SDS011;5599;52.210;21.046;2022-10-01T05:19:00;32.47;;;29.17;;
11090;SDS011;5599;52.210;21.046;2022-10-01T05:21:29;31.00;;;27.80;;
11090;SDS011;5599;52.210;21.046;2022-10-01T05:23:59;29.93;;;26.80;;
11090;SDS011;5599;52.210;21.046;2022-10-01T05:26:28;30.70;;;27.23;;
11090;SDS011;5599;52.210;21.046;2022-10-01T05:28:58;30.47;;;27.30;;
11090;SDS011;5599;52.210;21.046;2022-10-01T05:31:27;29.27;;;26.20;;
11090;SDS011;5599;52.210;21.046;2022-10-01T05:33:58;29.13;;;26.30;;
11090;SDS011;5599;52.210;21.046;2022-10-01T05:36:27;30.00;;;27.00;;
11090;SDS011;5599;52.210;21.046;2022-10-01T05:38:56;29.00;;;26.10;;
11090;SDS011;5599;52.210;21.046;2022-10-01T05:41:25;27.67;;;24.97;;
11090;SDS011;5599;52.210;21.046;2022-10-01T05:43:54;29.60;;;26.60;;
11090;SDS011;5599;52.210;21.046;2022-10-01T05:46:23;28.17;;;25.37;;
11090;SDS011;5599;52.210;21.046;2022-10-01T05:48:53;28.17;;;25.40;;
11090;SDS011;5599;52.210;21.046;2022-10-01T05:51:23;29.97;;;26.97;;
11090;SDS011;5599;52.210;21.046;2022-10-01T05:53:52;28.03;;;25.27;;
11090;SDS011;5599;52.210;21.046;2022-10-01T05:56:22;28.67;;;25.73;;
11090;SDS011;5599;52.210;21.046;2022-10-01T05:58:51;29.40;;;26.50;;
11090;SDS011;5599;52.210;21.046;2022-10-01T06:01:21;28.47;;;25.57;;
11090;SDS011;5599;52.210;21.046;2022-10-01T06:03:50;28.57;;;25.70;;
11090;SDS011;5599;52.210;21.046;2022-10-01T06:06:20;29.73;;;25.53;;
11090;SDS011;5599;52.210;21.046;2022-10-01T06:08:51;28.13;;;25.40;;
11090;SDS011;5599;52.210;21.046;2022-10-01T06:11:21;28.67;;;25.67;;
11090;SDS011;5599;52.210;21.046;2022-10-01T06:13:51;28.37;;;25.57;;
11090;SDS011;5599;52.210;21.046;2022-10-01T06:16:20;29.37;;;26.40;;
11090;SDS011;5599;52.210;21.046;2022-10-01T06:18:49;28.97;;;26.00;;
11090;SDS011;5599;52.210;21.046;2022-10-01T06:21:23;29.73;;;26.60;;
11090;SDS011;5599;52.210;21.046;2022-10-01T06:23:54;30.30;;;27.30;;
11090;SDS011;5599;52.210;21.046;2022-10-01T06:26:23;34.10;;;30.53;;
11090;SDS011;5599;52.210;21.046;2022-10-01T06:28:52;37.07;;;33.17;;
11090;SDS011;5599;52.210;21.046;2022-10-01T06:31:22;37.43;;;33.67;;
11090;SDS011;5599;52.210;21.046;2022-10-01T06:33:51;35.53;;;32.07;;
11090;SDS011;5599;52.210;21.046;2022-10-01T06:36:20;35.03;;;31.43;;
11090;SDS011;5599;52.210;21.046;2022-10-01T06:38:50;34.30;;;30.93;;
11090;SDS011;5599;52.210;21.046;2022-10-01T06:41:20;32.67;;;29.27;;
11090;SDS011;5599;52.210;21.046;2022-10-01T06:43:49;33.60;;;30.10;;
11090;SDS011;5599;52.210;21.046;2022-10-01T06:46:18;31.60;;;28.23;;
11090;SDS011;5599;52.210;21.046;2022-10-01T06:48:48;31.00;;;28.00;;
11090;SDS011;5599;52.210;21.046;2022-10-01T06:51:17;31.07;;;28.07;;
11090;SDS011;5599;52.210;21.046;2022-10-01T06:54:06;32.13;;;29.07;;
11090;SDS011;5599;52.210;21.046;2022-10-01T06:56:37;34.37;;;31.07;;
11090;SDS011;5599;52.210;21.046;2022-10-01T06:59:06;32.77;;;29.53;;
11090;SDS011;5599;52.210;21.046;2022-10-01T07:01:35;34.57;;;30.77;;
11090;SDS011;5599;52.210;21.046;2022-10-01T07:04:05;35.27;;;31.77;;
11090;SDS011;5599;52.210;21.046;2022-10-01T07:06:34;33.83;;;30.63;;
11090;SDS011;5599;52.210;21.046;2022-10-01T07:09:03;34.13;;;30.47;;
11090;SDS011;5599;52.210;21.046;2022-10-01T07:11:34;30.87;;;27.70;;
11090;SDS011;5599;52.210;21.046;2022-10-01T07:14:08;30.17;;;27.03;;
11090;SDS011;5599;52.210;21.046;2022-10-01T07:16:38;28.93;;;26.10;;
11090;SDS011;5599;52.210;21.046;2022-10-01T07:19:07;28.43;;;25.70;;
11090;SDS011;5599;52.210;21.046;2022-10-01T07:21:36;27.03;;;24.50;;
11090;SDS011;5599;52.210;21.046;2022-10-01T07:24:05;26.07;;;23.47;;
11090;SDS011;5599;52.210;21.046;2022-10-01T07:26:34;25.40;;;23.07;;
11090;SDS011;5599;52.210;21.046;2022-10-01T07:29:03;26.23;;;23.73;;
11090;SDS011;5599;52.210;21.046;2022-10-01T07:31:36;27.47;;;24.63;;
11090;SDS011;5599;52.210;21.046;2022-10-01T07:34:05;27.97;;;25.30;;
11090;SDS011;5599;52.210;21.046;2022-10-01T07:36:34;28.27;;;25.57;;
11090;SDS011;5599;52.210;21.046;2022-10-01T07:39:03;26.73;;;24.03;;
11090;SDS011;5599;52.210;21.046;2022-10-01T07:41:32;28.33;;;25.53;;
11090;SDS011;5599;52.210;21.046;2022-10-01T07:44:02;25.40;;;23.03;;
11090;SDS011;5599;52.210;21.046;2022-10-01T07:46:32;26.93;;;24.33;;
11090;SDS011;5599;52.210;21.046;2022-10-01T07:49:03;25.60;;;23.03;;
11090;SDS011;5599;52.210;21.046;2022-10-01T07:51:32;26.50;;;23.90;;
11090;SDS011;5599;52.210;21.046;2022-10-01T07:54:03;26.73;;;24.13;;
11090;SDS011;5599;52.210;21.046;2022-10-01T07:56:32;24.57;;;22.27;;
11090;SDS011;5599;52.210;21.046;2022-10-01T07:59:02;23.97;;;21.57;;
11090;SDS011;5599;52.210;21.046;2022-10-01T08:01:31;23.20;;;20.90;;
11090;SDS011;5599;52.210;21.046;2022-10-01T08:04:03;21.73;;;19.60;;
11090;SDS011;5599;52.210;21.046;2022-10-01T08:06:52;17.43;;;15.83;;
11090;SDS011;5599;52.210;21.046;2022-10-01T08:09:23;19.50;;;17.43;;
11090;SDS011;5599;52.210;21.046;2022-10-01T08:11:52;23.27;;;21.07;;
11090;SDS011;5599;52.210;21.046;2022-10-01T08:14:21;18.70;;;16.90;;
11090;SDS011;5599;52.210;21.046;2022-10-01T08:16:53;18.20;;;16.50;;
11090;SDS011;5599;52.210;21.046;2022-10-01T08:19:24;18.70;;;17.00;;
11090;SDS011;5599;52.210;21.046;2022-10-01T08:21:53;17.00;;;15.50;;
11090;SDS011;5599;52.210;21.046;2022-10-01T08:24:23;17.38;;;15.77;;
11090;SDS011;5599;52.210;21.046;2022-10-01T08:26:52;17.40;;;15.65;;
11090;SDS011;5599;52.210;21.046;2022-10-01T08:29:23;17.23;;;15.70;;
11090;SDS011;5599;52.210;21.046;2022-10-01T08:31:52;17.80;;;16.15;;
11090;SDS011;5599;52.210;21.046;2022-10-01T08:34:23;15.73;;;14.23;;
11090;SDS011;5599;52.210;21.046;2022-10-01T08:36:52;16.58;;;15.02;;
11090;SDS011;5599;52.210;21.046;2022-10-01T08:39:22;16.13;;;14.63;;
11090;SDS011;5599;52.210;21.046;2022-10-01T08:41:52;16.67;;;14.73;;
11090;SDS011;5599;52.210;21.046;2022-10-01T08:44:27;16.52;;;14.88;;
11090;SDS011;5599;52.210;21.046;2022-10-01T08:47:00;17.45;;;15.95;;
11090;SDS011;5599;52.210;21.046;2022-10-01T08:49:38;17.05;;;15.40;;
11090;SDS011;5599;52.210;21.046;2022-10-01T08:52:13;15.55;;;14.15;;
11090;SDS011;5599;52.210;21.046;2022-10-01T08:54:48;14.13;;;12.88;;
11090;SDS011;5599;52.210;21.046;2022-10-01T08:57:21;17.02;;;15.43;;
11090;SDS011;5599;52.210;21.046;2022-10-01T08:59:53;17.30;;;15.65;;
11090;SDS011;5599;52.210;21.046;2022-10-01T09:02:26;14.63;;;13.20;;
11090;SDS011;5599;52.210;21.046;2022-10-01T09:04:59;17.48;;;15.75;;
11090;SDS011;5599;52.210;21.046;2022-10-01T09:07:36;17.90;;;16.20;;
11090;SDS011;5599;52.210;21.046;2022-10-01T09:10:20;18.60;;;16.83;;
11090;SDS011;5599;52.210;21.046;2022-10-01T09:13:15;16.23;;;14.73;;
11090;SDS011;5599;52.210;21.046;2022-10-01T09:16:08;17.83;;;16.00;;
11090;SDS011;5599;52.210;21.046;2022-10-01T09:18:48;19.00;;;17.02;;
11090;SDS011;5599;52.210;21.046;2022-10-01T09:21:31;17.50;;;15.87;;
11090;SDS011;5599;52.210;21.046;2022-10-01T09:24:11;18.20;;;16.40;;
11090;SDS011;5599;52.210;21.046;2022-10-01T09:26:43;22.33;;;20.20;;
11090;SDS011;5599;52.210;21.046;2022-10-01T09:29:16;21.83;;;19.73;;
11090;SDS011;5599;52.210;21.046;2022-10-01T09:31:52;22.70;;;20.37;;
11090;SDS011;5599;52.210;21.046;2022-10-01T09:34:25;20.67;;;18.80;;
11090;SDS011;5599;52.210;21.046;2022-10-01T09:37:02;21.03;;;19.03;;
11090;SDS011;5599;52.210;21.046;2022-10-01T09:39:41;19.90;;;18.08;;
11090;SDS011;5599;52.210;21.046;2022-10-01T09:42:17;17.37;;;15.67;;
11090;SDS011;5599;52.210;21.046;2022-10-01T09:44:47;19.60;;;17.80;;
11090;SDS011;5599;52.210;21.046;2022-10-01T09:47:17;18.37;;;16.67;;
11090;SDS011;5599;52.210;21.046;2022-10-01T09:49:48;18.73;;;16.83;;
11090;SDS011;5599;52.210;21.046;2022-10-01T09:52:19;20.80;;;18.70;;
11090;SDS011;5599;52.210;21.046;2022-10-01T09:54:54;19.67;;;17.77;;
11090;SDS011;5599;52.210;21.046;2022-10-01T09:57:27;20.30;;;18.30;;
11090;SDS011;5599;52.210;21.046;2022-10-01T10:00:03;19.97;;;17.97;;
11090;SDS011;5599;52.210;21.046;2022-10-01T10:02:38;18.67;;;17.00;;
11090;SDS011;5599;52.210;21.046;2022-10-01T10:05:15;17.57;;;15.97;;
11090;SDS011;5599;52.210;21.046;2022-10-01T10:07:48;16.97;;;15.40;;
11090;SDS011;5599;52.210;21.046;2022-10-01T10:10:20;16.80;;;15.17;;
11090;SDS011;5599;52.210;21.046;2022-10-01T10:12:55;16.80;;;15.30;;
11090;SDS011;5599;52.210;21.046;2022-10-01T10:15:27;17.13;;;15.53;;
11090;SDS011;5599;52.210;21.046;2022-10-01T10:18:02;17.07;;;15.47;;
11090;SDS011;5599;52.210;21.046;2022-10-01T10:20:35;16.87;;;15.27;;
11090;SDS011;5599;52.210;21.046;2022-10-01T10:23:10;17.90;;;16.20;;
11090;SDS011;5599;52.210;21.046;2022-10-01T10:25:52;17.80;;;16.10;;
11090;SDS011;5599;52.210;21.046;2022-10-01T10:28:22;17.93;;;16.33;;
11090;SDS011;5599;52.210;21.046;2022-10-01T10:30:52;18.13;;;16.33;;
11090;SDS011;5599;52.210;21.046;2022-10-01T10:33:23;19.03;;;17.13;;
11090;SDS011;5599;52.210;21.046;2022-10-01T10:35:57;20.53;;;18.43;;
11090;SDS011;5599;52.210;21.046;2022-10-01T10:38:31;19.93;;;18.13;;
11090;SDS011;5599;52.210;21.046;2022-10-01T10:41:02;20.60;;;18.80;;
11090;SDS011;5599;52.210;21.046;2022-10-01T10:43:32;19.87;;;17.97;;
11090;SDS011;5599;52.210;21.046;2022-10-01T10:46:04;19.07;;;17.37;;
11090;SDS011;5599;52.210;21.046;2022-10-01T10:48:36;18.70;;;17.10;;
11090;SDS011;5599;52.210;21.046;2022-10-01T10:51:10;19.90;;;18.10;;
11090;SDS011;5599;52.210;21.046;2022-10-01T10:53:42;18.03;;;16.43;;
11090;SDS011;5599;52.210;21.046;2022-10-01T10:56:16;20.63;;;18.63;;
11090;SDS011;5599;52.210;21.046;2022-10-01T10:58:49;20.03;;;18.33;;
11090;SDS011;5599;52.210;21.046;2022-10-01T11:01:22;19.47;;;17.67;;
11090;SDS011;5599;52.210;21.046;2022-10-01T11:03:56;19.50;;;17.80;;
11090;SDS011;5599;52.210;21.046;2022-10-01T11:06:27;21.00;;;19.10;;
11090;SDS011;5599;52.210;21.046;2022-10-01T11:09:00;19.97;;;18.00;;
11090;SDS011;5599;52.210;21.046;2022-10-01T11:11:37;19.90;;;18.20;;
11090;SDS011;5599;52.210;21.046;2022-10-01T11:14:28;21.37;;;19.17;;
11090;SDS011;5599;52.210;21.046;2022-10-01T11:17:15;20.67;;;18.77;;
11090;SDS011;5599;52.210;21.046;2022-10-01T11:20:18;19.73;;;17.83;;
11090;SDS011;5599;52.210;21.046;2022-10-01T11:23:04;22.03;;;19.97;;
11090;SDS011;5599;52.210;21.046;2022-10-01T11:26:00;21.03;;;19.03;;
11090;SDS011;5599;52.210;21.046;2022-10-01T11:28:41;18.73;;;17.07;;
11090;SDS011;5599;52.210;21.046;2022-10-01T11:31:22;17.70;;;16.10;;
11090;SDS011;5599;52.210;21.046;2022-10-01T11:34:10;18.03;;;16.23;;
11090;SDS011;5599;52.210;21.046;2022-10-01T11:36:54;16.60;;;14.97;;
11090;SDS011;5599;52.210;21.046;2022-10-01T11:39:27;16.77;;;15.17;;
11090;SDS011;5599;52.210;21.046;2022-10-01T11:42:03;17.83;;;16.13;;
11090;SDS011;5599;52.210;21.046;2022-10-01T11:44:35;16.03;;;14.60;;
11090;SDS011;5599;52.210;21.046;2022-10-01T11:47:12;15.00;;;13.57;;
11090;SDS011;5599;52.210;21.046;2022-10-01T11:49:49;16.03;;;14.43;;
11090;SDS011;5599;52.210;21.046;2022-10-01T11:52:28;13.00;;;11.80;;
11090;SDS011;5599;52.210;21.046;2022-10-01T11:55:05;11.27;;;10.17;;
11090;SDS011;5599;52.210;21.046;2022-10-01T11:58:10;12.33;;;10.57;;
11090;SDS011;5599;52.210;21.046;2022-10-01T12:01:04;8.93;;;8.23;;
11090;SDS011;5599;52.210;21.046;2022-10-01T12:03:42;9.30;;;8.07;;
11090;SDS011;5599;52.210;21.046;2022-10-01T12:06:22;10.73;;;9.70;;
11090;SDS011;5599;52.210;21.046;2022-10-01T12:09:01;9.37;;;8.47;;
11090;SDS011;5599;52.210;21.046;2022-10-01T12:11:36;9.60;;;8.70;;
11090;SDS011;5599;52.210;21.046;2022-10-01T12:14:14;9.70;;;8.70;;
11090;SDS011;5599;52.210;21.046;2022-10-01T12:16:46;11.00;;;9.83;;
11090;SDS011;5599;52.210;21.046;2022-10-01T12:19:22;9.80;;;8.90;;
11090;SDS011;5599;52.210;21.046;2022-10-01T12:21:55;11.17;;;10.17;;
11090;SDS011;5599;52.210;21.046;2022-10-01T12:24:32;9.90;;;8.90;;
11090;SDS011;5599;52.210;21.046;2022-10-01T12:27:21;11.03;;;10.00;;
11090;SDS011;5599;52.210;21.046;2022-10-01T12:30:03;10.67;;;9.27;;
11090;SDS011;5599;52.210;21.046;2022-10-01T12:32:36;10.57;;;9.67;;
11090;SDS011;5599;52.210;21.046;2022-10-01T12:35:22;10.77;;;9.67;;
11090;SDS011;5599;52.210;21.046;2022-10-01T12:38:05;10.23;;;9.33;;
11090;SDS011;5599;52.210;21.046;2022-10-01T12:40:45;10.50;;;9.60;;
11090;SDS011;5599;52.210;21.046;2022-10-01T12:43:28;10.00;;;9.13;;
11090;SDS011;5599;52.210;21.046;2022-10-01T12:46:28;9.63;;;7.43;;
11090;SDS011;5599;52.210;21.046;2022-10-01T12:49:05;7.27;;;6.67;;
11090;SDS011;5599;52.210;21.046;2022-10-01T12:51:50;7.93;;;7.23;;
11090;SDS011;5599;52.210;21.046;2022-10-01T12:54:34;7.30;;;6.70;;
11090;SDS011;5599;52.210;21.046;2022-10-01T12:57:28;13.13;;;11.83;;
11090;SDS011;5599;52.210;21.046;2022-10-01T13:00:09;7.47;;;6.87;;
11090;SDS011;5599;52.210;21.046;2022-10-01T13:06:13;7.00;;;6.37;;
11090;SDS011;5599;52.210;21.046;2022-10-01T13:08:58;6.40;;;5.90;;
11090;SDS011;5599;52.210;21.046;2022-10-01T13:11:56;6.87;;;6.27;;
11090;SDS011;5599;52.210;21.046;2022-10-01T13:14:37;6.53;;;5.90;;
11090;SDS011;5599;52.210;21.046;2022-10-01T13:17:08;6.20;;;5.70;;
11090;SDS011;5599;52.210;21.046;2022-10-01T13:19:45;5.77;;;5.20;;
11090;SDS011;5599;52.210;21.046;2022-10-01T13:22:23;5.80;;;5.27;;
11090;SDS011;5599;52.210;21.046;2022-10-01T13:25:06;5.67;;;5.17;;
11090;SDS011;5599;52.210;21.046;2022-10-01T13:27:49;5.93;;;5.37;;
11090;SDS011;5599;52.210;21.046;2022-10-01T13:30:23;5.37;;;4.50;;
11090;SDS011;5599;52.210;21.046;2022-10-01T13:32:54;5.37;;;4.87;;
11090;SDS011;5599;52.210;21.046;2022-10-01T13:35:27;5.77;;;5.27;;
11090;SDS011;5599;52.210;21.046;2022-10-01T13:38:13;5.10;;;4.70;;
11090;SDS011;5599;52.210;21.046;2022-10-01T13:40:43;5.57;;;5.07;;
11090;SDS011;5599;52.210;21.046;2022-10-01T13:43:25;5.77;;;5.27;;
11090;SDS011;5599;52.210;21.046;2022-10-01T13:45:55;6.57;;;5.97;;
11090;SDS011;5599;52.210;21.046;2022-10-01T13:48:33;5.80;;;5.30;;
11090;SDS011;5599;52.210;21.046;2022-10-01T13:51:04;6.27;;;5.67;;
11090;SDS011;5599;52.210;21.046;2022-10-01T13:53:45;6.20;;;5.70;;
11090;SDS011;5599;52.210;21.046;2022-10-01T13:56:28;6.33;;;5.77;;
11090;SDS011;5599;52.210;21.046;2022-10-01T13:58:59;6.17;;;5.67;;
11090;SDS011;5599;52.210;21.046;2022-10-01T14:01:29;6.10;;;5.50;;
11090;SDS011;5599;52.210;21.046;2022-10-01T14:04:12;9.50;;;8.60;;
11090;SDS011;5599;52.210;21.046;2022-10-01T14:06:49;7.30;;;6.53;;
11090;SDS011;5599;52.210;21.046;2022-10-01T14:09:23;9.50;;;8.70;;
11090;SDS011;5599;52.210;21.046;2022-10-01T14:11:56;6.60;;;6.10;;
11090;SDS011;5599;52.210;21.046;2022-10-01T14:14:48;8.10;;;6.50;;
11090;SDS011;5599;52.210;21.046;2022-10-01T14:17:38;7.90;;;7.10;;
11090;SDS011;5599;52.210;21.046;2022-10-01T14:20:15;8.73;;;7.70;;
11090;SDS011;5599;52.210;21.046;2022-10-01T14:22:48;7.57;;;6.97;;
11090;SDS011;5599;52.210;21.046;2022-10-01T14:25:42;7.80;;;7.00;;
11090;SDS011;5599;52.210;21.046;2022-10-01T14:28:32;8.00;;;7.30;;
11090;SDS011;5599;52.210;21.046;2022-10-01T14:31:11;8.53;;;7.60;;
11090;SDS011;5599;52.210;21.046;2022-10-01T14:33:52;8.13;;;7.43;;
11090;SDS011;5599;52.210;21.046;2022-10-01T14:36:43;8.57;;;7.87;;
11090;SDS011;5599;52.210;21.046;2022-10-01T14:39:16;9.23;;;8.43;;
11090;SDS011;5599;52.210;21.046;2022-10-01T14:41:49;9.60;;;8.70;;
11090;SDS011;5599;52.210;21.046;2022-10-01T14:44:21;9.83;;;8.93;;
11090;SDS011;5599;52.210;21.046;2022-10-01T14:46:53;10.23;;;9.33;;
11090;SDS011;5599;52.210;21.046;2022-10-01T14:49:24;10.63;;;9.53;;
11090;SDS011;5599;52.210;21.046;2022-10-01T14:51:57;11.00;;;10.00;;
11090;SDS011;5599;52.210;21.046;2022-10-01T14:54:30;11.30;;;10.20;;
11090;SDS011;5599;52.210;21.046;2022-10-01T14:57:10;11.07;;;9.97;;
11090;SDS011;5599;52.210;21.046;2022-10-01T14:59:44;11.63;;;10.53;;
11090;SDS011;5599;52.210;21.046;2022-10-01T15:02:16;13.00;;;11.80;;
11090;SDS011;5599;52.210;21.046;2022-10-01T15:04:47;11.87;;;10.77;;
11090;SDS011;5599;52.210;21.046;2022-10-01T15:07:18;13.07;;;11.83;;
11090;SDS011;5599;52.210;21.046;2022-10-01T15:09:47;12.23;;;11.03;;